createdAt,value
2018-12-27T00:02:26.121Z,5.02
2018-12-27T00:04:57.342Z,4.93
2018-12-27T00:07:28.345Z,5.05
2018-12-27T00:09:59.252Z,5.00
2018-12-27T00:12:30.137Z,5.00
2018-12-27T00:15:01.107Z,4.94
2018-12-27T00:17:32.020Z,5.03
2018-12-27T00:20:02.970Z,4.98
2018-12-27T00:22:33.878Z,5.06
2018-12-27T00:25:05.008Z,5.07
2018-12-27T00:27:35.998Z,4.94
2018-12-27T00:30:07.094Z,5.21
2018-12-27T00:32:38.187Z,5.06
2018-12-27T00:35:09.322Z,5.12
2018-12-27T00:37:40.394Z,5.10
2018-12-27T00:40:11.570Z,5.09
2018-12-27T00:42:42.699Z,5.05
2018-12-27T00:45:13.864Z,5.06
2018-12-27T00:47:45.628Z,5.20
2018-12-27T00:50:16.760Z,5.05
2018-12-27T00:52:47.916Z,5.11
2018-12-27T00:55:19.072Z,5.12
2018-12-27T00:57:50.150Z,5.12
2018-12-27T01:00:21.277Z,5.16
2018-12-27T01:02:52.363Z,5.12
2018-12-27T01:05:23.504Z,5.08
2018-12-27T01:07:54.660Z,5.12
2018-12-27T01:10:25.763Z,5.06
2018-12-27T01:12:56.900Z,5.16
2018-12-27T01:15:27.993Z,5.05
2018-12-27T01:17:59.158Z,4.96
2018-12-27T01:20:30.549Z,4.86
2018-12-27T01:23:01.751Z,4.88
2018-12-27T01:25:33.178Z,4.81
2018-12-27T01:28:04.255Z,4.71
2018-12-27T01:30:35.728Z,4.66
2018-12-27T01:33:06.841Z,4.63
2018-12-27T01:35:38.221Z,4.67
2018-12-27T01:38:09.661Z,4.68
2018-12-27T01:40:40.827Z,4.70
2018-12-27T01:43:15.574Z,4.57
2018-12-27T01:45:46.708Z,4.52
2018-12-27T01:48:17.813Z,4.39
2018-12-27T01:50:48.935Z,4.42
2018-12-27T01:53:20.032Z,4.36
2018-12-27T01:55:51.181Z,4.40
2018-12-27T01:58:22.284Z,4.40
2018-12-27T02:00:53.478Z,4.27
2018-12-27T02:03:26.578Z,4.26
2018-12-27T02:05:57.517Z,4.20
2018-12-27T02:08:28.673Z,4.22
2018-12-27T02:10:59.839Z,4.24
2018-12-27T02:13:32.085Z,4.19
2018-12-27T02:16:03.516Z,4.15
2018-12-27T02:18:34.621Z,4.10
2018-12-27T02:21:05.778Z,4.14
2018-12-27T02:23:37.169Z,4.14
2018-12-27T02:26:08.310Z,4.05
2018-12-27T02:28:39.511Z,3.96
2018-12-27T02:31:10.877Z,3.88
2018-12-27T02:33:42.024Z,3.84
2018-12-27T02:36:13.125Z,3.84
2018-12-27T02:38:48.834Z,3.73
2018-12-27T02:41:20.219Z,3.72
2018-12-27T02:43:51.324Z,3.61
2018-12-27T02:46:22.424Z,3.87
2018-12-27T02:48:53.531Z,3.73
2018-12-27T02:51:24.644Z,3.65
2018-12-27T02:53:55.748Z,3.47
2018-12-27T02:56:27.175Z,3.50
2018-12-27T02:58:58.312Z,3.50
2018-12-27T03:01:29.702Z,3.48
2018-12-27T03:04:01.134Z,3.43
2018-12-27T03:06:32.253Z,3.35
2018-12-27T03:09:04.284Z,3.22
2018-12-27T03:11:35.378Z,3.15
2018-12-27T03:14:06.565Z,3.09
2018-12-27T03:16:37.711Z,3.01
2018-12-27T03:19:09.114Z,2.96
2018-12-27T03:21:40.259Z,2.94
2018-12-27T03:24:11.347Z,2.91
2018-12-27T03:26:42.429Z,2.90
2018-12-27T03:29:13.537Z,2.78
2018-12-27T03:31:44.622Z,2.67
2018-12-27T03:34:15.811Z,2.66
2018-12-27T03:36:47.182Z,2.66
2018-12-27T03:39:18.288Z,2.64
2018-12-27T03:41:49.672Z,2.54
2018-12-27T03:44:21.106Z,2.47
2018-12-27T03:46:52.213Z,2.41
2018-12-27T03:49:23.631Z,2.39
2018-12-27T03:51:54.810Z,2.34
2018-12-27T03:54:25.969Z,2.28
2018-12-27T03:56:57.447Z,2.26
2018-12-27T03:59:28.550Z,2.30
2018-12-27T04:01:59.694Z,2.25
2018-12-27T04:04:30.855Z,2.31
2018-12-27T04:07:01.995Z,2.58
2018-12-27T04:09:33.263Z,2.75
2018-12-27T04:12:04.427Z,2.79
2018-12-27T04:14:35.846Z,2.84
2018-12-27T04:17:07.023Z,3.07
2018-12-27T04:19:37.922Z,3.14
2018-12-27T04:22:09.326Z,3.18
2018-12-27T04:24:40.703Z,3.28
2018-12-27T04:27:11.989Z,3.36
2018-12-27T04:29:42.892Z,3.46
2018-12-27T04:32:14.104Z,3.46
2018-12-27T04:34:45.164Z,3.52
2018-12-27T04:37:16.029Z,3.52
2018-12-27T04:39:47.253Z,3.56
2018-12-27T04:42:19.063Z,3.62
2018-12-27T04:44:50.129Z,3.60
2018-12-27T04:47:21.075Z,3.65
2018-12-27T04:49:51.954Z,3.75
2018-12-27T04:52:23.551Z,3.84
2018-12-27T04:54:54.439Z,3.78
2018-12-27T04:57:25.336Z,3.80
2018-12-27T04:59:56.243Z,3.81
2018-12-27T05:02:27.165Z,3.95
2018-12-27T05:04:58.120Z,4.03
2018-12-27T05:07:29.001Z,3.93
2018-12-27T05:09:59.913Z,3.85
2018-12-27T05:12:30.837Z,3.90
2018-12-27T05:15:01.757Z,3.88
2018-12-27T05:17:33.033Z,3.87
2018-12-27T05:20:03.898Z,3.85
2018-12-27T05:22:35.081Z,3.96
2018-12-27T05:25:06.400Z,3.87
2018-12-27T05:27:37.589Z,3.99
2018-12-27T05:30:08.507Z,3.94
2018-12-27T05:32:39.398Z,3.90
2018-12-27T05:35:10.326Z,3.85
2018-12-27T05:37:41.639Z,3.89
2018-12-27T05:40:12.587Z,3.95
2018-12-27T05:42:43.541Z,3.92
2018-12-27T05:45:14.539Z,3.93
2018-12-27T05:47:45.414Z,4.00
2018-12-27T05:50:16.329Z,4.03
2018-12-27T05:52:47.301Z,4.04
2018-12-27T05:55:18.263Z,4.01
2018-12-27T05:57:49.160Z,3.98
2018-12-27T06:00:20.124Z,4.09
2018-12-27T06:02:51.049Z,4.06
2018-12-27T06:05:21.926Z,4.21
2018-12-27T06:07:53.516Z,4.10
2018-12-27T06:10:24.471Z,4.14
2018-12-27T06:12:55.354Z,4.17
2018-12-27T06:15:26.352Z,4.06
2018-12-27T06:17:57.393Z,4.20
2018-12-27T06:20:28.311Z,4.07
2018-12-27T06:22:59.184Z,4.13
2018-12-27T06:25:30.069Z,4.07
2018-12-27T06:28:00.958Z,4.01
2018-12-27T06:30:31.839Z,4.11
2018-12-27T06:33:02.786Z,4.17
2018-12-27T06:35:34.212Z,4.11
2018-12-27T06:38:05.121Z,4.23
2018-12-27T06:40:36.022Z,4.08
2018-12-27T06:43:07.206Z,4.22
2018-12-27T06:45:38.109Z,4.19
2018-12-27T06:48:09.002Z,4.12
2018-12-27T06:50:39.920Z,4.24
2018-12-27T06:53:10.791Z,4.16
2018-12-27T06:55:42.333Z,4.15
2018-12-27T06:58:13.260Z,4.02
2018-12-27T07:00:44.149Z,4.12
2018-12-27T07:03:15.138Z,4.12
2018-12-27T07:05:46.087Z,4.22
2018-12-27T07:08:17.029Z,4.05
2018-12-27T07:10:48.202Z,4.04
2018-12-27T07:13:19.357Z,3.97
2018-12-27T07:15:50.248Z,4.00
2018-12-27T07:18:21.166Z,4.07
2018-12-27T07:20:52.107Z,4.07
2018-12-27T07:23:24.390Z,4.05
2018-12-27T07:25:55.273Z,4.06
2018-12-27T07:28:26.552Z,4.13
2018-12-27T07:30:57.417Z,4.16
2018-12-27T07:33:28.376Z,4.15
2018-12-27T07:35:59.581Z,3.99
2018-12-27T07:38:30.764Z,4.06
2018-12-27T07:41:01.803Z,4.11
2018-12-27T07:43:32.740Z,4.06
2018-12-27T07:46:10.712Z,3.96
2018-12-27T07:48:36.539Z,3.96
2018-12-27T07:51:07.550Z,3.96
2018-12-27T07:53:38.466Z,4.02
2018-12-27T07:56:09.417Z,4.05
2018-12-27T07:58:40.327Z,4.06
2018-12-27T08:01:11.206Z,4.10
2018-12-27T08:03:42.144Z,4.08
2018-12-27T08:06:13.300Z,4.04
2018-12-27T08:08:44.172Z,4.15
2018-12-27T08:11:15.083Z,4.23
2018-12-27T08:13:45.976Z,4.25
2018-12-27T08:16:16.904Z,4.22
2018-12-27T08:18:47.807Z,4.36
2018-12-27T08:21:18.690Z,4.29
2018-12-27T08:23:49.615Z,4.27
2018-12-27T08:26:20.493Z,4.37
2018-12-27T08:28:51.445Z,4.36
2018-12-27T08:31:22.313Z,4.31
2018-12-27T08:33:53.310Z,4.36
2018-12-27T08:36:24.513Z,4.50
2018-12-27T08:38:55.393Z,4.55
2018-12-27T08:41:26.432Z,4.52
2018-12-27T08:43:57.390Z,4.55
2018-12-27T08:46:28.256Z,4.49
2018-12-27T08:48:59.176Z,4.57
2018-12-27T08:51:30.100Z,4.64
2018-12-27T08:54:01.306Z,4.67
2018-12-27T08:56:32.414Z,4.63
2018-12-27T08:59:03.303Z,4.74
2018-12-27T09:01:34.220Z,4.70
2018-12-27T09:04:05.243Z,4.67
2018-12-27T09:06:36.155Z,4.66
2018-12-27T09:09:09.538Z,4.58
2018-12-27T09:11:40.408Z,4.82
2018-12-27T09:14:11.281Z,4.77
2018-12-27T09:16:42.205Z,4.61
2018-12-27T09:19:13.202Z,4.52
2018-12-27T09:21:44.390Z,4.57
2018-12-27T09:24:15.615Z,4.70
2018-12-27T09:26:46.496Z,4.70
2018-12-27T09:29:17.369Z,4.81
2018-12-27T09:31:48.284Z,4.82
2018-12-27T09:34:19.453Z,4.73
2018-12-27T09:36:50.475Z,4.96
2018-12-27T09:39:21.448Z,4.87
2018-12-27T09:41:52.321Z,5.02
2018-12-27T09:44:23.492Z,5.00
2018-12-27T09:46:54.495Z,5.03
2018-12-27T09:49:25.373Z,5.01
2018-12-27T09:52:01.997Z,4.99
2018-12-27T09:54:28.982Z,5.07
2018-12-27T09:56:59.870Z,5.24
2018-12-27T09:59:31.031Z,5.31
2018-12-27T10:02:01.967Z,5.37
2018-12-27T10:04:33.163Z,5.40
2018-12-27T10:07:04.125Z,5.33
2018-12-27T10:09:35.041Z,5.36
2018-12-27T10:12:05.920Z,5.38
2018-12-27T10:14:36.843Z,5.49
2018-12-27T10:17:07.827Z,5.67
2018-12-27T10:19:38.744Z,5.64
2018-12-27T10:22:09.948Z,5.85
2018-12-27T10:24:41.004Z,5.90
2018-12-27T10:27:11.941Z,6.00
2018-12-27T10:29:43.097Z,6.24
2018-12-27T10:32:14.035Z,6.46
2018-12-27T10:34:44.937Z,6.30
2018-12-27T10:37:16.154Z,6.24
2018-12-27T10:39:47.112Z,6.20
2018-12-27T10:42:18.046Z,6.16
2018-12-27T10:44:48.918Z,6.12
2018-12-27T10:47:19.844Z,6.12
2018-12-27T10:49:51.002Z,6.04
2018-12-27T10:52:21.869Z,6.12
2018-12-27T10:54:52.777Z,6.15
2018-12-27T10:57:23.642Z,6.04
2018-12-27T10:59:54.548Z,6.02
2018-12-27T11:02:25.501Z,6.07
2018-12-27T11:04:57.502Z,6.14
2018-12-27T11:07:28.503Z,6.22
2018-12-27T11:09:59.376Z,6.10
2018-12-27T11:12:30.610Z,6.12
2018-12-27T11:15:01.549Z,6.20
2018-12-27T11:17:32.770Z,6.14
2018-12-27T11:20:03.685Z,6.21
2018-12-27T11:22:34.665Z,6.36
2018-12-27T11:25:05.761Z,6.36
2018-12-27T11:27:36.629Z,6.40
2018-12-27T11:30:08.269Z,6.31
2018-12-27T11:32:39.212Z,6.25
2018-12-27T11:35:10.165Z,6.34
2018-12-27T11:37:41.076Z,6.34
2018-12-27T11:40:11.964Z,6.30
2018-12-27T11:42:42.922Z,6.23
2018-12-27T11:45:13.859Z,6.19
2018-12-27T11:47:44.819Z,6.24
2018-12-27T11:50:15.706Z,6.32
2018-12-27T11:52:46.578Z,6.36
2018-12-27T11:55:17.478Z,6.31
2018-12-27T11:57:48.347Z,6.40
2018-12-27T12:00:19.285Z,6.38
2018-12-27T12:02:50.145Z,6.40
2018-12-27T12:05:21.187Z,6.50
2018-12-27T12:07:52.050Z,6.50
2018-12-27T12:10:22.932Z,6.57
2018-12-27T12:12:53.838Z,6.52
2018-12-27T12:15:25.044Z,6.42
2018-12-27T12:17:56.055Z,6.39
2018-12-27T12:20:27.242Z,6.43
2018-12-27T12:22:58.173Z,6.31
2018-12-27T12:25:29.094Z,6.38
2018-12-27T12:28:00.866Z,6.30
2018-12-27T12:30:31.893Z,6.23
2018-12-27T12:33:03.066Z,6.23
2018-12-27T12:35:33.964Z,6.32
2018-12-27T12:38:05.455Z,6.44
2018-12-27T12:40:39.405Z,6.41
2018-12-27T12:43:10.326Z,6.47
2018-12-27T12:45:41.196Z,6.49
2018-12-27T12:48:12.080Z,6.48
2018-12-27T12:50:43.288Z,6.41
2018-12-27T12:53:14.454Z,6.39
2018-12-27T12:55:45.655Z,6.34
2018-12-27T12:58:16.852Z,6.44
2018-12-27T13:00:48.056Z,6.41
2018-12-27T13:03:18.991Z,6.31
2018-12-27T13:05:49.866Z,6.26
2018-12-27T13:08:20.631Z,6.38
2018-12-27T13:10:51.510Z,6.41
2018-12-27T13:13:22.469Z,6.26
2018-12-27T13:15:53.795Z,6.31
2018-12-27T13:18:24.951Z,6.21
2018-12-27T13:20:55.870Z,6.43
2018-12-27T13:23:26.756Z,6.39
2018-12-27T13:25:57.750Z,6.55
2018-12-27T13:28:29.050Z,6.57
2018-12-27T13:30:59.988Z,6.59
2018-12-27T13:33:30.904Z,6.65
2018-12-27T13:36:01.770Z,6.58
2018-12-27T13:38:32.991Z,6.55
2018-12-27T13:41:04.162Z,6.52
2018-12-27T13:43:35.073Z,6.50
2018-12-27T13:46:06.384Z,6.46
2018-12-27T13:48:37.310Z,6.31
2018-12-27T13:51:08.209Z,6.40
2018-12-27T13:53:39.097Z,6.32
2018-12-27T13:56:09.978Z,6.33
2018-12-27T13:58:40.929Z,6.38
2018-12-27T14:01:12.080Z,6.30
2018-12-27T14:03:42.965Z,6.23
2018-12-27T14:06:13.949Z,6.25
2018-12-27T14:08:45.128Z,6.08
2018-12-27T14:11:16.319Z,6.07
2018-12-27T14:13:47.226Z,6.10
2018-12-27T14:16:18.153Z,6.19
2018-12-27T14:18:49.031Z,6.13
2018-12-27T14:21:19.925Z,6.10
2018-12-27T14:23:50.854Z,6.07
2018-12-27T14:26:22.096Z,6.11
2018-12-27T14:28:53.296Z,6.09
2018-12-27T14:31:24.183Z,6.01
2018-12-27T14:33:55.474Z,6.02
2018-12-27T14:36:26.381Z,5.99
2018-12-27T14:38:57.549Z,5.94
2018-12-27T14:41:28.526Z,5.87
2018-12-27T14:44:01.477Z,5.88
2018-12-27T14:46:32.408Z,5.86
2018-12-27T14:49:03.373Z,5.88
2018-12-27T14:51:34.807Z,5.82
2018-12-27T14:54:05.810Z,5.85
2018-12-27T14:56:36.704Z,5.85
2018-12-27T14:59:07.743Z,5.92
2018-12-27T15:01:38.836Z,5.76
2018-12-27T15:04:09.719Z,5.78
2018-12-27T15:06:46.928Z,5.74
2018-12-27T15:09:13.281Z,5.84
2018-12-27T15:11:44.219Z,5.65
2018-12-27T15:14:15.132Z,5.81
2018-12-27T15:16:46.033Z,5.84
2018-12-27T15:19:16.993Z,5.74
2018-12-27T15:21:48.235Z,5.77
2018-12-27T15:24:19.167Z,5.74
2018-12-27T15:26:50.197Z,5.72
2018-12-27T15:29:21.183Z,5.76
2018-12-27T15:31:52.097Z,5.78
2018-12-27T15:34:23.047Z,5.68
2018-12-27T15:36:54.435Z,5.73
2018-12-27T15:39:25.970Z,5.63
2018-12-27T15:41:57.221Z,5.76
2018-12-27T15:44:28.189Z,5.79
2018-12-27T15:46:59.106Z,5.75
2018-12-27T15:49:30.075Z,5.80
2018-12-27T15:52:01.307Z,5.83
2018-12-27T15:54:32.311Z,5.74
2018-12-27T15:57:03.181Z,5.80
2018-12-27T15:59:34.077Z,5.73
2018-12-27T16:02:05.054Z,5.77
2018-12-27T16:04:35.968Z,5.76
2018-12-27T16:07:06.913Z,5.72
2018-12-27T16:09:37.849Z,5.75
2018-12-27T16:12:08.835Z,5.72
2018-12-27T16:14:40.127Z,5.77
2018-12-27T16:17:11.101Z,5.65
2018-12-27T16:19:42.048Z,5.65
2018-12-27T16:22:12.987Z,5.64
2018-12-27T16:24:44.005Z,5.73
2018-12-27T16:27:15.064Z,5.65
2018-12-27T16:29:46.077Z,5.66
2018-12-27T16:32:17.840Z,5.63
2018-12-27T16:34:48.909Z,5.60
2018-12-27T16:37:19.830Z,5.63
2018-12-27T16:39:50.797Z,5.51
2018-12-27T16:42:22.218Z,5.50
2018-12-27T16:44:53.199Z,5.56
2018-12-27T16:47:24.149Z,5.58
2018-12-27T16:49:55.106Z,5.45
2018-12-27T16:52:26.161Z,5.48
2018-12-27T16:54:57.083Z,5.58
2018-12-27T16:57:28.342Z,5.36
2018-12-27T16:59:59.629Z,5.32
2018-12-27T17:02:30.593Z,5.30
2018-12-27T17:05:01.509Z,5.43
2018-12-27T17:07:32.547Z,5.52
2018-12-27T17:10:03.542Z,5.49
2018-12-27T17:12:34.590Z,5.43
2018-12-27T17:15:05.745Z,5.45
2018-12-27T17:17:36.658Z,5.58
2018-12-27T17:20:08.234Z,5.49
2018-12-27T17:22:39.177Z,5.50
2018-12-27T17:25:10.107Z,5.50
2018-12-27T17:27:41.036Z,5.39
2018-12-27T17:30:12.187Z,5.45
2018-12-27T17:32:43.126Z,5.39
2018-12-27T17:35:14.089Z,5.34
2018-12-27T17:37:45.094Z,5.33
2018-12-27T17:40:15.989Z,5.31
2018-12-27T17:42:47.366Z,5.31
2018-12-27T17:45:18.435Z,5.39
2018-12-27T17:47:49.686Z,5.33
2018-12-27T17:50:20.700Z,5.30
2018-12-27T17:52:51.577Z,5.33
2018-12-27T17:55:22.915Z,5.15
2018-12-27T17:57:53.835Z,5.12
2018-12-27T18:00:24.831Z,5.17
2018-12-27T18:02:55.777Z,5.33
2018-12-27T18:05:26.690Z,5.26
2018-12-27T18:07:57.901Z,5.27
2018-12-27T18:10:29.234Z,5.23
2018-12-27T18:13:00.177Z,5.13
2018-12-27T18:15:31.165Z,5.16
2018-12-27T18:18:02.305Z,5.13
2018-12-27T18:20:33.276Z,5.20
2018-12-27T18:23:04.330Z,5.22
2018-12-27T18:25:35.333Z,5.19
2018-12-27T18:28:06.265Z,5.12
2018-12-27T18:30:37.193Z,5.22
2018-12-27T18:33:08.226Z,5.33
2018-12-27T18:35:39.133Z,5.16
2018-12-27T18:38:10.087Z,5.19
2018-12-27T18:40:41.068Z,5.08
2018-12-27T18:43:12.329Z,5.15
2018-12-27T18:45:43.276Z,5.12
2018-12-27T18:48:14.213Z,5.04
2018-12-27T18:50:45.423Z,5.07
2018-12-27T18:53:16.421Z,5.06
2018-12-27T18:55:47.306Z,5.20
2018-12-27T18:58:18.411Z,5.19
2018-12-27T19:00:49.471Z,5.19
2018-12-27T19:03:20.503Z,5.19
2018-12-27T19:05:51.511Z,5.32
2018-12-27T19:08:22.398Z,5.31
2018-12-27T19:11:46.853Z,5.33
2018-12-27T19:14:17.785Z,5.34
2018-12-27T19:16:48.795Z,5.29
2018-12-27T19:19:19.725Z,5.37
2018-12-27T19:22:04.521Z,5.33
2018-12-27T19:24:35.446Z,5.20
2018-12-27T19:27:06.369Z,5.19
2018-12-27T19:29:37.399Z,5.13
2018-12-27T19:32:08.312Z,5.16
2018-12-27T19:34:39.525Z,5.21
2018-12-27T19:37:10.839Z,5.20
2018-12-27T19:39:42.548Z,5.28
2018-12-27T19:42:14.102Z,5.24
2018-12-27T19:44:45.523Z,5.28
2018-12-27T19:47:17.370Z,5.40
2018-12-27T19:49:49.122Z,5.36
2018-12-27T19:52:21.167Z,5.28
2018-12-27T19:54:53.345Z,5.33
2018-12-27T19:57:25.315Z,5.31
2018-12-27T19:59:57.197Z,5.13
2018-12-27T20:02:30.681Z,5.32
2018-12-27T20:05:03.286Z,5.29
2018-12-27T20:07:35.642Z,5.24
2018-12-27T20:10:07.691Z,5.22
2018-12-27T20:12:40.274Z,5.18
2018-12-27T20:15:12.183Z,5.18
2018-12-27T20:17:45.019Z,5.13
2018-12-27T20:20:17.703Z,5.21
2018-12-27T20:22:49.952Z,5.14
2018-12-27T20:25:22.110Z,5.27
2018-12-27T20:27:54.206Z,5.26
2018-12-27T20:30:26.104Z,5.30
2018-12-27T20:32:58.008Z,5.30
2018-12-27T20:35:30.037Z,5.39
2018-12-27T20:38:06.615Z,5.32
2018-12-27T20:40:35.279Z,5.18
2018-12-27T20:43:07.340Z,5.18
2018-12-27T20:45:39.115Z,5.13
2018-12-27T20:48:12.092Z,5.12
2018-12-27T20:50:44.205Z,5.18
2018-12-27T20:53:15.954Z,5.19
2018-12-27T20:55:47.532Z,5.15
2018-12-27T20:58:19.005Z,5.19
2018-12-27T21:00:50.465Z,5.28
2018-12-27T21:03:21.848Z,5.26
2018-12-27T21:05:53.143Z,5.29
2018-12-27T21:08:24.590Z,5.21
2018-12-27T21:10:55.892Z,5.31
2018-12-27T21:13:26.955Z,5.36
2018-12-27T21:15:57.970Z,5.31
2018-12-27T21:18:29.067Z,5.33
2018-12-27T21:21:00.144Z,5.31
2018-12-27T21:23:31.171Z,5.32
2018-12-27T21:26:02.168Z,5.27
2018-12-27T21:28:33.498Z,5.29
2018-12-27T21:31:04.506Z,5.23
2018-12-27T21:33:35.512Z,5.33
2018-12-27T21:36:06.562Z,5.26
2018-12-27T21:38:37.747Z,5.30
2018-12-27T21:41:08.689Z,5.29
2018-12-27T21:43:39.700Z,5.29
2018-12-27T21:46:10.989Z,5.30
2018-12-27T21:48:41.907Z,5.28
2018-12-27T21:51:12.923Z,5.35
2018-12-27T21:53:44.259Z,5.33
2018-12-27T21:56:15.292Z,5.36
2018-12-27T21:58:46.547Z,5.41
2018-12-27T22:01:17.633Z,5.44
2018-12-27T22:03:48.647Z,5.52
2018-12-27T22:06:20.055Z,5.38
2018-12-27T22:08:51.314Z,5.54
2018-12-27T22:11:22.377Z,5.55
2018-12-27T22:13:53.422Z,5.53
2018-12-27T22:16:24.310Z,5.54
2018-12-27T22:18:55.361Z,5.66
2018-12-27T22:21:26.614Z,5.61
2018-12-27T22:23:57.626Z,5.57
2018-12-27T22:26:28.667Z,5.46
2018-12-27T22:28:59.607Z,5.51
2018-12-27T22:31:30.651Z,5.42
2018-12-27T22:34:01.829Z,5.47
2018-12-27T22:36:32.770Z,5.40
2018-12-27T22:39:05.254Z,5.47
2018-12-27T22:41:36.270Z,5.56
2018-12-27T22:44:07.653Z,5.54
2018-12-27T22:46:38.582Z,5.36
2018-12-27T22:49:09.797Z,5.29
2018-12-27T22:51:40.717Z,5.32
2018-12-27T22:54:11.678Z,5.30
2018-12-27T22:56:42.638Z,5.49
2018-12-27T22:59:13.536Z,5.43
2018-12-27T23:01:44.498Z,5.33
2018-12-27T23:04:15.469Z,5.39
2018-12-27T23:06:46.483Z,5.37
2018-12-27T23:09:17.471Z,5.48
2018-12-27T23:11:48.804Z,5.53
2018-12-27T23:14:19.831Z,5.53
2018-12-27T23:16:51.161Z,5.43
2018-12-27T23:19:22.180Z,5.47
2018-12-27T23:21:53.426Z,5.46
2018-12-27T23:24:24.373Z,5.38
2018-12-27T23:26:55.389Z,5.45
2018-12-27T23:29:26.380Z,5.37
2018-12-27T23:31:57.367Z,5.40
2018-12-27T23:34:28.591Z,5.43
2018-12-27T23:36:59.905Z,5.39
2018-12-27T23:39:30.848Z,5.45
2018-12-27T23:42:01.838Z,5.46
2018-12-27T23:44:32.836Z,5.45
2018-12-27T23:47:03.820Z,5.49
2018-12-27T23:49:34.884Z,5.48
2018-12-27T23:52:05.856Z,5.52
2018-12-27T23:54:36.829Z,5.54
2018-12-27T23:57:07.775Z,5.54
2018-12-27T23:59:38.666Z,5.46
